CAMANCHE RESERVOIR (CMN)

Elevation: 236' · MOKELUMNE R basin · Operator: East Bay Municipal Utility District

Provisional data, subject to change.
Query executed Wednesday at 4:23:20   clock

Select a sensor type for a plot of data.
Note: Reservoir Flows are daily averages.

Earlier

Date RES ELE    STORAGE    RES CHG    TOC STO    ABV TOC    OUTFLOW    INFLOW   
 FEET   AF   AF   AF   AF   CFS   CFS  
08/18/2014 187.34 135610 435 417100 -281490 260 496
08/19/2014 187.42 135940 259 417100 -281160 261 499
08/20/2014 187.54 136430 438 417100 -280670 261 501
08/21/2014 187.40 135860 -571 417100 -281240 261 11
08/22/2014 187.26 135290 -604 417100 -- 261 11
08/23/2014 187.13 134760 -499 417100 -- 260 11
08/24/2014 187.00 134230 -558 417100 -282870 260 11
08/25/2014 187.09 134590 393 417100 -282510 260 499
08/26/2014 187.21 135080 511 417100 -282020 260 496
08/27/2014 187.32 135530 445 417100 -281570 260 527
08/28/2014 187.19 135000 -518 417100 -282100 260 11
08/29/2014 187.06 134470 -537 417100 -- 259 11
08/30/2014 186.92 133910 -557 417100 -- 259 11
08/31/2014 186.78 133340 -529 417100 -- 259 11
09/01/2014 186.66 132860 -533 417100 -284240 259 11
09/02/2014 186.76 133260 400 417100 -283840 247 519
09/03/2014 189.89 133790 543 417100 -283310 260 537
09/04/2014 187.14 134800 -- 417100 -282300 260 799
09/05/2014 187.38 135770 -- 417100 -- 244 802
09/06/2014 187.25 135240 -- 417100 -- 251 11
09/07/2014 187.12 134720 -- 417100 -282380 251 11
09/08/2014 187.35 135650 -- 417100 -- 251 798
09/09/2014 187.60 136670 -- 417100 -280430 251 798
09/10/2014 187.83 137620 -- 417100 -279480 247 789
09/11/2014 187.75 137330 -- 417100 -279770 240 11
09/12/2014 187.65 136880 -- 417100 -- 240 11
09/13/2014 187.53 136390 -- 417100 -- 239 11
09/14/2014 187.40 135860 -- 417100 -281240 239 11
09/15/2014 187.28 135370 -- 417100 -281730 232 11
09/16/2014 -- -- -- -- -- -- --
09/17/2014 -- -- -- -- -- -- --

Later | Latest

Warning! This data is preliminary and subject to revision.

Download Data Now Download Data Now | Show CMN Map | Plot CMN Data | 1 Month CMN Data | Real-Time CMN Data | CMN Info